AAR743 RKSI-VTBS
Flight info
| Callsign | AAR743 |
|---|---|
| Flight time | 5h 47m |
| Altitude | 34000 |
| Route | BOPTA2Y BOPTA Z51 BEDES Y711 MUGUS Y742 SALMI Q11 TACLE B591 HCN G86 KAPLI DCT MADRU DCT SULUX DCT IGLEG DCT IKELA/K0863F340 A1 PAPRA/N0466F340 A1 UBL Y20 GRASO Y13 RUKSA DCT EASTE EASTE1C |
| Aircraft | A321/M-SDE3FGHIRWY/LB1 |
Departure
| Time | 2026-05-04 07:58 |
|---|---|
| Airport | Incheon International Airport (RKSI) |
Arrival
| Time | 2026-05-04 13:46 |
|---|---|
| Airport | Suvarnabhumi Airport (VTBS) |
| Time | Latitude | Longitude | Altitude | Speed | Heading |
|---|---|---|---|---|---|
| 2026-05-04 07:38 | 37.46731 | 126.43695 | 33 ft | 0 kts | 330° |
| 2026-05-04 07:43 | 37.46729 | 126.43696 | 33 ft | 2 kts | 330° |
| 2026-05-04 07:44 | 37.46707 | 126.43713 | 31 ft | 4 kts | 325° |
| 2026-05-04 07:44 | 37.46685 | 126.43734 | 30 ft | 4 kts | 317° |
| 2026-05-04 07:44 | 37.46668 | 126.43758 | 30 ft | 4 kts | 297° |
| 2026-05-04 07:44 | 37.46663 | 126.43785 | 33 ft | 3 kts | 239° |
| 2026-05-04 07:45 | 37.46666 | 126.43793 | 30 ft | 0 kts | 235° |
| 2026-05-04 07:47 | 37.46663 | 126.43787 | 33 ft | 2 kts | 235° |
| 2026-05-04 07:49 | 37.46470 | 126.43474 | 33 ft | 10 kts | 193° |
| 2026-05-04 07:49 | 37.46408 | 126.43506 | 33 ft | 10 kts | 146° |
| 2026-05-04 07:49 | 37.46351 | 126.43557 | 33 ft | 10 kts | 144° |
| 2026-05-04 07:50 | 37.46293 | 126.43610 | 32 ft | 10 kts | 144° |
| 2026-05-04 07:50 | 37.46233 | 126.43663 | 33 ft | 11 kts | 144° |
| 2026-05-04 07:50 | 37.46177 | 126.43649 | 32 ft | 9 kts | 234° |
| 2026-05-04 07:50 | 37.46138 | 126.43581 | 33 ft | 10 kts | 234° |
| 2026-05-04 07:51 | 37.46099 | 126.43510 | 33 ft | 10 kts | 234° |
| 2026-05-04 07:51 | 37.46058 | 126.43439 | 33 ft | 10 kts | 234° |
| 2026-05-04 07:51 | 37.46017 | 126.43365 | 33 ft | 10 kts | 234° |
| 2026-05-04 07:51 | 37.45974 | 126.43290 | 33 ft | 11 kts | 234° |
| 2026-05-04 07:52 | 37.45928 | 126.43218 | 33 ft | 10 kts | 211° |
| 2026-05-04 07:52 | 37.45862 | 126.43240 | 32 ft | 10 kts | 145° |
| 2026-05-04 07:52 | 37.45802 | 126.43294 | 33 ft | 11 kts | 145° |
| 2026-05-04 07:52 | 37.45736 | 126.43352 | 33 ft | 12 kts | 144° |
| 2026-05-04 07:53 | 37.45660 | 126.43420 | 33 ft | 14 kts | 144° |
| 2026-05-04 07:54 | 37.45016 | 126.43993 | 31 ft | 17 kts | 144° |
| 2026-05-04 07:55 | 37.44922 | 126.44077 | 33 ft | 17 kts | 144° |
| 2026-05-04 07:55 | 37.44827 | 126.44162 | 33 ft | 17 kts | 144° |
| 2026-05-04 07:55 | 37.44732 | 126.44246 | 33 ft | 17 kts | 144° |
| 2026-05-04 07:55 | 37.44636 | 126.44331 | 32 ft | 17 kts | 144° |
| 2026-05-04 07:56 | 37.44546 | 126.44411 | 32 ft | 14 kts | 146° |
| 2026-05-04 07:56 | 37.44469 | 126.44376 | 33 ft | 13 kts | 233° |
| 2026-05-04 07:56 | 37.44422 | 126.44295 | 33 ft | 11 kts | 234° |
| 2026-05-04 07:56 | 37.44377 | 126.44215 | 33 ft | 11 kts | 234° |
| 2026-05-04 07:57 | 37.44382 | 126.44139 | 33 ft | 10 kts | 322° |
| 2026-05-04 07:57 | 37.44395 | 126.44127 | 31 ft | 6 kts | 324° |
| 2026-05-04 07:57 | 37.44591 | 126.43952 | 33 ft | 68 kts | 324° |
| 2026-05-04 07:57 | 37.45148 | 126.43457 | 32 ft | 126 kts | 324° |
| 2026-05-04 07:58 | 37.46004 | 126.42695 | 34 ft | 173 kts | 325° |
| 2026-05-04 07:58 | 37.47061 | 126.41748 | 330 ft | 189 kts | 320° |
| 2026-05-04 07:58 | 37.48036 | 126.40658 | 1014 ft | 188 kts | 310° |
| 2026-05-04 07:58 | 37.48905 | 126.39400 | 1503 ft | 198 kts | 306° |
| 2026-05-04 07:59 | 37.49805 | 126.37947 | 1746 ft | 220 kts | 303° |
| 2026-05-04 07:59 | 37.50399 | 126.36182 | 2473 ft | 224 kts | 282° |
| 2026-05-04 07:59 | 37.50488 | 126.34132 | 2945 ft | 242 kts | 273° |
| 2026-05-04 07:59 | 37.50516 | 126.31980 | 3692 ft | 248 kts | 274° |
| 2026-05-04 08:00 | 37.50555 | 126.29789 | 4503 ft | 252 kts | 275° |
| 2026-05-04 08:00 | 37.50601 | 126.27571 | 5220 ft | 255 kts | 275° |
| 2026-05-04 08:00 | 37.50653 | 126.25321 | 5874 ft | 259 kts | 275° |
| 2026-05-04 08:02 | 37.42122 | 126.15093 | 9989 ft | 310 kts | 173° |
| 2026-05-04 08:02 | 37.40014 | 126.15812 | 10279 ft | 324 kts | 154° |
| 2026-05-04 08:02 | 37.38137 | 126.17476 | 10411 ft | 340 kts | 132° |
| 2026-05-04 08:03 | 37.36542 | 126.19772 | 10544 ft | 357 kts | 129° |
| 2026-05-04 08:03 | 37.34882 | 126.22197 | 10663 ft | 375 kts | 129° |
| 2026-05-04 08:03 | 37.33074 | 126.24668 | 10789 ft | 392 kts | 138° |
| 2026-05-04 08:03 | 37.30739 | 126.26464 | 11175 ft | 398 kts | 158° |
| 2026-05-04 08:04 | 37.28132 | 126.27684 | 11683 ft | 402 kts | 161° |
| 2026-05-04 08:04 | 37.25487 | 126.28863 | 12210 ft | 405 kts | 161° |
| 2026-05-04 08:04 | 37.22930 | 126.30365 | 12709 ft | 408 kts | 146° |
| 2026-05-04 08:04 | 37.20760 | 126.32600 | 13193 ft | 411 kts | 137° |
| 2026-05-04 08:05 | 37.18626 | 126.35006 | 13727 ft | 414 kts | 137° |
| 2026-05-04 08:05 | 37.16480 | 126.37437 | 14198 ft | 417 kts | 137° |
| 2026-05-04 08:05 | 37.14290 | 126.39918 | 14664 ft | 420 kts | 137° |
| 2026-05-04 08:05 | 37.12141 | 126.42347 | 15141 ft | 423 kts | 137° |
| 2026-05-04 08:06 | 37.09946 | 126.44819 | 15606 ft | 426 kts | 137° |
| 2026-05-04 08:06 | 37.07727 | 126.47309 | 16089 ft | 430 kts | 137° |
| 2026-05-04 08:06 | 37.05407 | 126.49689 | 16602 ft | 433 kts | 145° |
| 2026-05-04 08:06 | 37.02793 | 126.51591 | 17047 ft | 437 kts | 155° |
| 2026-05-04 08:08 | 36.81880 | 126.58865 | 19810 ft | 454 kts | 167° |
| 2026-05-04 08:08 | 36.78820 | 126.59878 | 20192 ft | 456 kts | 168° |
| 2026-05-04 08:10 | 36.53839 | 126.68232 | 23012 ft | 473 kts | 169° |
| 2026-05-04 08:11 | 36.50660 | 126.69302 | 23343 ft | 475 kts | 169° |
| 2026-05-04 08:11 | 36.44252 | 126.71433 | 23940 ft | 478 kts | 169° |
| 2026-05-04 08:11 | 36.41028 | 126.72499 | 24223 ft | 480 kts | 169° |
| 2026-05-04 08:12 | 36.37802 | 126.73567 | 24500 ft | 481 kts | 170° |
| 2026-05-04 08:12 | 36.34568 | 126.74647 | 24796 ft | 482 kts | 170° |
| 2026-05-04 08:12 | 36.31327 | 126.75741 | 25067 ft | 484 kts | 170° |
| 2026-05-04 08:12 | 36.28079 | 126.76844 | 25341 ft | 485 kts | 170° |
| 2026-05-04 08:13 | 36.24816 | 126.77954 | 25608 ft | 486 kts | 170° |
| 2026-05-04 08:13 | 36.21551 | 126.79061 | 25888 ft | 488 kts | 170° |
| 2026-05-04 08:13 | 36.18267 | 126.80138 | 26164 ft | 487 kts | 173° |
| 2026-05-04 08:13 | 36.14950 | 126.80770 | 26481 ft | 479 kts | 181° |
| 2026-05-04 08:14 | 36.11644 | 126.80828 | 26917 ft | 470 kts | 189° |
| 2026-05-04 08:14 | 36.08410 | 126.80485 | 27323 ft | 466 kts | 191° |
| 2026-05-04 08:14 | 36.05186 | 126.80126 | 27724 ft | 464 kts | 191° |
| 2026-05-04 08:16 | 35.83113 | 126.77766 | 30643 ft | 445 kts | 192° |
| 2026-05-04 08:16 | 35.80040 | 126.77433 | 30991 ft | 442 kts | 192° |
| 2026-05-04 08:16 | 35.76990 | 126.77103 | 31333 ft | 439 kts | 193° |
| 2026-05-04 08:17 | 35.73963 | 126.76775 | 31750 ft | 434 kts | 193° |
| 2026-05-04 08:17 | 35.70969 | 126.76450 | 32133 ft | 430 kts | 193° |
| 2026-05-04 08:17 | 35.68036 | 126.76132 | 32496 ft | 427 kts | 194° |
| 2026-05-04 08:17 | 35.65088 | 126.75814 | 32847 ft | 424 kts | 194° |
| 2026-05-04 08:19 | 35.45008 | 126.73644 | 34099 ft | 412 kts | 195° |
| 2026-05-04 08:19 | 35.42149 | 126.73336 | 34097 ft | 413 kts | 195° |
| 2026-05-04 08:20 | 35.36447 | 126.72728 | 34098 ft | 408 kts | 196° |
| 2026-05-04 08:20 | 35.30819 | 126.72135 | 34094 ft | 405 kts | 196° |
| 2026-05-04 08:21 | 35.25195 | 126.71532 | 34097 ft | 406 kts | 196° |
| 2026-05-04 08:21 | 35.19567 | 126.70929 | 34059 ft | 406 kts | 197° |
| 2026-05-04 08:22 | 35.14864 | 126.70433 | 34116 ft | 404 kts | 197° |
| 2026-05-04 08:24 | 34.92718 | 126.68087 | 34126 ft | 398 kts | 197° |
| 2026-05-04 08:24 | 34.87206 | 126.67500 | 34124 ft | 397 kts | 197° |
| 2026-05-04 08:25 | 34.81699 | 126.66917 | 34123 ft | 397 kts | 197° |
| 2026-05-04 08:25 | 34.76194 | 126.66337 | 34106 ft | 397 kts | 197° |
| 2026-05-04 08:27 | 34.54197 | 126.64022 | 34083 ft | 397 kts | 197° |
| 2026-05-04 08:28 | 34.48687 | 126.63443 | 34098 ft | 397 kts | 197° |
| 2026-05-04 08:28 | 34.43178 | 126.62862 | 34107 ft | 398 kts | 197° |
| 2026-05-04 08:29 | 34.37660 | 126.62289 | 34088 ft | 398 kts | 197° |
| 2026-05-04 08:31 | 34.15588 | 126.59997 | 34106 ft | 398 kts | 196° |
| 2026-05-04 08:33 | 33.93561 | 126.57699 | 34115 ft | 397 kts | 196° |
| 2026-05-04 08:35 | 33.75307 | 126.52889 | 34110 ft | 378 kts | 209° |
| 2026-05-04 08:35 | 33.72830 | 126.51817 | 34117 ft | 379 kts | 208° |
| 2026-05-04 08:35 | 33.67863 | 126.49676 | 34147 ft | 379 kts | 209° |
| 2026-05-04 08:37 | 33.50477 | 126.42164 | 34132 ft | 380 kts | 208° |
| 2026-05-04 08:38 | 33.45498 | 126.40018 | 34143 ft | 380 kts | 209° |
| 2026-05-04 08:38 | 33.40514 | 126.37871 | 34100 ft | 381 kts | 208° |
| 2026-05-04 08:40 | 33.20469 | 126.29272 | 34101 ft | 384 kts | 208° |
| 2026-05-04 08:41 | 33.15425 | 126.27116 | 34107 ft | 385 kts | 208° |
| 2026-05-04 08:41 | 33.10371 | 126.24959 | 34133 ft | 386 kts | 208° |
| 2026-05-04 08:42 | 33.05316 | 126.22808 | 34154 ft | 385 kts | 208° |
| 2026-05-04 08:42 | 33.00276 | 126.20657 | 34162 ft | 384 kts | 208° |
| 2026-05-04 08:43 | 32.95251 | 126.18497 | 34159 ft | 384 kts | 208° |
| 2026-05-04 08:43 | 32.90229 | 126.16333 | 34158 ft | 384 kts | 208° |
| 2026-05-04 08:44 | 32.85210 | 126.14177 | 34126 ft | 384 kts | 208° |
| 2026-05-04 08:46 | 32.64982 | 126.05536 | 34102 ft | 388 kts | 208° |
| 2026-05-04 08:46 | 32.59932 | 126.03383 | 34113 ft | 389 kts | 208° |
| 2026-05-04 08:47 | 32.54827 | 126.01213 | 34125 ft | 390 kts | 208° |
| 2026-05-04 08:47 | 32.49718 | 125.99036 | 34131 ft | 390 kts | 208° |
| 2026-05-04 08:48 | 32.44601 | 125.96863 | 34105 ft | 391 kts | 208° |
| 2026-05-04 08:48 | 32.39480 | 125.94693 | 34119 ft | 391 kts | 208° |
| 2026-05-04 08:49 | 32.34348 | 125.92525 | 34128 ft | 392 kts | 208° |
| 2026-05-04 08:50 | 32.16346 | 125.84934 | 34128 ft | 394 kts | 208° |
| 2026-05-04 08:51 | 32.11184 | 125.82763 | 34143 ft | 394 kts | 208° |
| 2026-05-04 08:51 | 32.06016 | 125.80589 | 34117 ft | 394 kts | 208° |
| 2026-05-04 08:52 | 32.00844 | 125.78415 | 34138 ft | 395 kts | 208° |
| 2026-05-04 08:52 | 31.95667 | 125.76239 | 34142 ft | 395 kts | 208° |
| 2026-05-04 08:54 | 31.74948 | 125.67552 | 34164 ft | 395 kts | 208° |
| 2026-05-04 08:55 | 31.69774 | 125.65383 | 34165 ft | 395 kts | 208° |
| 2026-05-04 08:55 | 31.64591 | 125.63209 | 34140 ft | 396 kts | 208° |
| 2026-05-04 09:01 | 31.09869 | 125.40355 | 34169 ft | 400 kts | 208° |
| 2026-05-04 09:01 | 31.04656 | 125.38194 | 34172 ft | 401 kts | 208° |
| 2026-05-04 09:02 | 30.99402 | 125.36026 | 34174 ft | 400 kts | 208° |
| 2026-05-04 09:02 | 30.94119 | 125.33833 | 34174 ft | 400 kts | 208° |
| 2026-05-04 09:03 | 30.88876 | 125.31657 | 34147 ft | 400 kts | 208° |
| 2026-05-04 09:03 | 30.83630 | 125.29490 | 34159 ft | 400 kts | 208° |
| 2026-05-04 09:04 | 30.78422 | 125.27338 | 34167 ft | 400 kts | 208° |
| 2026-05-04 09:04 | 30.73179 | 125.25179 | 34171 ft | 400 kts | 208° |
| 2026-05-04 09:05 | 30.67935 | 125.23021 | 34145 ft | 400 kts | 208° |
| 2026-05-04 09:05 | 30.62690 | 125.20866 | 34163 ft | 400 kts | 208° |
| 2026-05-04 09:06 | 30.58291 | 125.19065 | 34172 ft | 400 kts | 208° |
| 2026-05-04 09:08 | 30.37371 | 125.10489 | 34178 ft | 397 kts | 208° |
| 2026-05-04 09:08 | 30.32160 | 125.08366 | 34180 ft | 397 kts | 208° |
| 2026-05-04 09:09 | 30.26959 | 125.06249 | 34137 ft | 396 kts | 209° |
| 2026-05-04 09:09 | 30.21798 | 125.04141 | 34171 ft | 395 kts | 209° |
| 2026-05-04 09:10 | 30.16619 | 125.02030 | 34179 ft | 395 kts | 209° |
| 2026-05-04 09:10 | 30.11438 | 124.99920 | 34182 ft | 394 kts | 209° |
| 2026-05-04 09:11 | 30.06263 | 124.97814 | 34152 ft | 394 kts | 209° |
| 2026-05-04 09:11 | 30.01092 | 124.95712 | 34163 ft | 394 kts | 209° |
| 2026-05-04 09:12 | 29.95932 | 124.93572 | 34173 ft | 393 kts | 210° |
| 2026-05-04 09:14 | 29.75428 | 124.84781 | 34160 ft | 393 kts | 210° |
| 2026-05-04 09:14 | 29.70293 | 124.82602 | 34170 ft | 393 kts | 210° |
| 2026-05-04 09:15 | 29.65154 | 124.80420 | 34144 ft | 393 kts | 210° |
| 2026-05-04 09:15 | 29.60025 | 124.78243 | 34160 ft | 393 kts | 211° |
| 2026-05-04 09:17 | 29.36946 | 124.68473 | 34171 ft | 392 kts | 211° |
| 2026-05-04 09:18 | 29.31827 | 124.66314 | 34176 ft | 392 kts | 211° |
| 2026-05-04 09:18 | 29.26714 | 124.64153 | 34176 ft | 391 kts | 211° |
| 2026-05-04 09:19 | 29.21599 | 124.62001 | 34143 ft | 391 kts | 211° |
| 2026-05-04 09:19 | 29.16492 | 124.59859 | 34160 ft | 391 kts | 211° |
| 2026-05-04 09:20 | 29.11386 | 124.57712 | 34170 ft | 391 kts | 211° |
| 2026-05-04 09:20 | 29.06281 | 124.55572 | 34175 ft | 391 kts | 211° |
| 2026-05-04 09:21 | 29.01180 | 124.53428 | 34173 ft | 390 kts | 211° |
| 2026-05-04 09:21 | 28.96107 | 124.51249 | 34177 ft | 385 kts | 215° |
| 2026-05-04 09:22 | 28.93804 | 124.49784 | 34176 ft | 374 kts | 223° |
| 2026-05-04 09:22 | 28.91685 | 124.48080 | 34178 ft | 373 kts | 224° |
| 2026-05-04 09:22 | 28.87449 | 124.44671 | 34200 ft | 373 kts | 224° |
| 2026-05-04 09:23 | 28.83209 | 124.41267 | 34189 ft | 372 kts | 224° |
| 2026-05-04 09:23 | 28.78974 | 124.37866 | 34147 ft | 372 kts | 224° |
| 2026-05-04 09:25 | 28.62023 | 124.24283 | 34175 ft | 373 kts | 224° |
| 2026-05-04 09:26 | 28.57776 | 124.20893 | 34154 ft | 373 kts | 224° |
| 2026-05-04 09:26 | 28.53551 | 124.17534 | 34171 ft | 373 kts | 224° |
| 2026-05-04 09:27 | 28.49297 | 124.14155 | 34180 ft | 373 kts | 224° |
| 2026-05-04 09:27 | 28.45022 | 124.10744 | 34182 ft | 373 kts | 224° |
| 2026-05-04 09:28 | 28.40799 | 124.07384 | 34154 ft | 373 kts | 224° |
| 2026-05-04 09:28 | 28.36546 | 124.04002 | 34162 ft | 373 kts | 224° |
| 2026-05-04 09:29 | 28.32282 | 124.00625 | 34169 ft | 376 kts | 221° |
| 2026-05-04 09:29 | 28.29900 | 123.99208 | 34169 ft | 388 kts | 213° |
| 2026-05-04 09:29 | 28.27416 | 123.98023 | 34174 ft | 388 kts | 214° |
| 2026-05-04 09:30 | 28.22471 | 123.95665 | 34177 ft | 388 kts | 214° |
| 2026-05-04 09:30 | 28.17494 | 123.93292 | 34152 ft | 388 kts | 214° |
| 2026-05-04 09:31 | 28.12518 | 123.90906 | 34162 ft | 389 kts | 214° |
| 2026-05-04 09:31 | 28.07531 | 123.88516 | 34177 ft | 389 kts | 214° |
| 2026-05-04 09:32 | 28.02537 | 123.86127 | 34178 ft | 390 kts | 214° |
| 2026-05-04 09:34 | 27.82476 | 123.76582 | 34171 ft | 393 kts | 213° |
| 2026-05-04 09:34 | 27.77436 | 123.74188 | 34178 ft | 393 kts | 213° |
| 2026-05-04 09:35 | 27.72397 | 123.71794 | 34148 ft | 393 kts | 213° |
| 2026-05-04 09:35 | 27.67343 | 123.69399 | 34155 ft | 394 kts | 213° |
| 2026-05-04 09:37 | 27.51477 | 123.58407 | 34141 ft | 381 kts | 224° |
| 2026-05-04 09:37 | 27.49325 | 123.56663 | 34145 ft | 381 kts | 224° |
| 2026-05-04 09:38 | 27.45015 | 123.53171 | 34163 ft | 382 kts | 224° |
| 2026-05-04 09:38 | 27.40690 | 123.49679 | 34174 ft | 383 kts | 224° |
| 2026-05-04 09:39 | 27.36365 | 123.46186 | 34181 ft | 383 kts | 224° |
| 2026-05-04 09:39 | 27.32037 | 123.42692 | 34154 ft | 384 kts | 223° |
| 2026-05-04 09:40 | 27.27689 | 123.39194 | 34161 ft | 384 kts | 223° |
| 2026-05-04 09:40 | 27.23341 | 123.35686 | 34168 ft | 385 kts | 223° |
| 2026-05-04 09:42 | 27.05893 | 123.21672 | 34146 ft | 388 kts | 223° |
| 2026-05-04 09:43 | 27.01493 | 123.18148 | 34152 ft | 389 kts | 223° |
| 2026-05-04 09:43 | 26.97083 | 123.14611 | 34186 ft | 390 kts | 223° |
| 2026-05-04 09:44 | 26.92673 | 123.11082 | 34192 ft | 389 kts | 223° |
| 2026-05-04 09:46 | 26.75052 | 122.97013 | 34191 ft | 388 kts | 223° |
| 2026-05-04 09:46 | 26.70651 | 122.93516 | 34157 ft | 388 kts | 223° |
| 2026-05-04 09:47 | 26.66231 | 122.90020 | 34161 ft | 389 kts | 222° |
| 2026-05-04 09:49 | 26.49285 | 122.76603 | 34158 ft | 390 kts | 222° |
| 2026-05-04 09:51 | 26.33749 | 122.64301 | 34166 ft | 392 kts | 222° |
| 2026-05-04 09:51 | 26.29302 | 122.60794 | 34148 ft | 392 kts | 222° |
| 2026-05-04 09:52 | 26.24847 | 122.57282 | 34146 ft | 393 kts | 222° |
| 2026-05-04 09:52 | 26.20379 | 122.53761 | 34147 ft | 394 kts | 222° |
| 2026-05-04 09:53 | 26.15897 | 122.50238 | 34153 ft | 394 kts | 222° |
| 2026-05-04 09:53 | 26.11413 | 122.46715 | 34157 ft | 395 kts | 222° |
| 2026-05-04 09:54 | 26.06922 | 122.43199 | 34141 ft | 395 kts | 222° |
| 2026-05-04 09:54 | 26.02387 | 122.39650 | 34142 ft | 396 kts | 222° |
| 2026-05-04 09:55 | 25.97901 | 122.36137 | 34151 ft | 397 kts | 222° |
| 2026-05-04 09:55 | 25.93347 | 122.32577 | 34160 ft | 398 kts | 222° |
| 2026-05-04 09:56 | 25.88853 | 122.29068 | 34163 ft | 397 kts | 222° |
| 2026-05-04 09:56 | 25.84332 | 122.25541 | 34132 ft | 397 kts | 222° |
| 2026-05-04 09:57 | 25.79799 | 122.22006 | 34134 ft | 398 kts | 222° |
| 2026-05-04 09:57 | 25.75261 | 122.18469 | 34135 ft | 399 kts | 222° |
| 2026-05-04 09:58 | 25.70715 | 122.14933 | 34143 ft | 400 kts | 222° |
| 2026-05-04 09:58 | 25.66160 | 122.11392 | 34147 ft | 400 kts | 222° |
| 2026-05-04 10:00 | 25.46405 | 122.07209 | 34143 ft | 432 kts | 192° |
| 2026-05-04 10:00 | 25.43397 | 122.07093 | 34143 ft | 433 kts | 192° |
| 2026-05-04 10:04 | 25.01257 | 122.05422 | 34140 ft | 433 kts | 191° |
| 2026-05-04 10:04 | 24.95233 | 122.05188 | 34145 ft | 433 kts | 191° |
| 2026-05-04 10:05 | 24.89204 | 122.04949 | 34148 ft | 434 kts | 191° |
| 2026-05-04 10:05 | 24.83171 | 122.04713 | 34124 ft | 434 kts | 190° |
| 2026-05-04 10:06 | 24.77130 | 122.04486 | 34140 ft | 434 kts | 190° |
| 2026-05-04 10:06 | 24.71092 | 122.04260 | 34143 ft | 434 kts | 191° |
| 2026-05-04 10:08 | 24.49936 | 122.03433 | 34150 ft | 435 kts | 190° |
| 2026-05-04 10:08 | 24.43889 | 122.03201 | 34151 ft | 435 kts | 190° |
| 2026-05-04 10:09 | 24.37849 | 122.02961 | 34154 ft | 434 kts | 191° |
| 2026-05-04 10:09 | 24.32041 | 122.01823 | 34129 ft | 419 kts | 204° |
| 2026-05-04 10:10 | 24.26452 | 121.99983 | 34123 ft | 420 kts | 204° |
| 2026-05-04 10:10 | 24.20845 | 121.98152 | 34121 ft | 421 kts | 204° |
| 2026-05-04 10:11 | 24.15232 | 121.96323 | 34130 ft | 421 kts | 204° |
| 2026-05-04 10:11 | 24.09617 | 121.94491 | 34128 ft | 421 kts | 204° |
| 2026-05-04 10:12 | 24.03988 | 121.92661 | 34103 ft | 423 kts | 204° |
| 2026-05-04 10:12 | 23.98338 | 121.90813 | 34100 ft | 425 kts | 204° |
| 2026-05-04 10:13 | 23.92666 | 121.88965 | 34098 ft | 426 kts | 204° |
| 2026-05-04 10:13 | 23.86979 | 121.87130 | 34102 ft | 427 kts | 204° |
| 2026-05-04 10:14 | 23.81281 | 121.85293 | 34084 ft | 427 kts | 203° |
| 2026-05-04 10:16 | 23.58303 | 121.77849 | 34110 ft | 432 kts | 203° |
| 2026-05-04 10:16 | 23.52539 | 121.75988 | 34081 ft | 433 kts | 203° |
| 2026-05-04 10:17 | 23.46754 | 121.74107 | 34085 ft | 435 kts | 203° |
| 2026-05-04 10:19 | 23.23437 | 121.66587 | 34074 ft | 439 kts | 202° |
| 2026-05-04 10:19 | 23.17580 | 121.64706 | 34075 ft | 439 kts | 202° |
| 2026-05-04 10:20 | 23.11751 | 121.62833 | 34083 ft | 440 kts | 202° |
| 2026-05-04 10:20 | 23.05884 | 121.60951 | 34062 ft | 440 kts | 202° |
| 2026-05-04 10:21 | 23.00000 | 121.59066 | 34054 ft | 441 kts | 202° |
| 2026-05-04 10:21 | 22.94102 | 121.57179 | 34062 ft | 442 kts | 202° |
| 2026-05-04 10:22 | 22.85195 | 121.54333 | 34065 ft | 443 kts | 202° |
| 2026-05-04 10:23 | 22.79274 | 121.52450 | 34043 ft | 444 kts | 202° |
| 2026-05-04 10:25 | 22.58237 | 121.40332 | 34065 ft | 429 kts | 222° |
| 2026-05-04 10:25 | 22.53505 | 121.36402 | 34048 ft | 429 kts | 222° |
| 2026-05-04 10:26 | 22.48776 | 121.32445 | 34046 ft | 430 kts | 222° |
| 2026-05-04 10:26 | 22.44056 | 121.28470 | 34057 ft | 430 kts | 223° |
| 2026-05-04 10:27 | 22.39336 | 121.24475 | 34053 ft | 431 kts | 223° |
| 2026-05-04 10:27 | 22.34672 | 121.20424 | 34073 ft | 430 kts | 223° |
| 2026-05-04 10:28 | 22.30016 | 121.16381 | 34058 ft | 429 kts | 224° |
| 2026-05-04 10:28 | 22.25344 | 121.12362 | 34059 ft | 430 kts | 223° |
| 2026-05-04 10:29 | 22.20672 | 121.08341 | 34042 ft | 430 kts | 224° |
| 2026-05-04 10:29 | 22.16004 | 121.04316 | 34042 ft | 430 kts | 224° |
| 2026-05-04 10:30 | 22.11330 | 121.00285 | 34036 ft | 430 kts | 224° |
| 2026-05-04 10:30 | 22.06654 | 120.96260 | 34052 ft | 430 kts | 223° |
| 2026-05-04 10:31 | 22.01971 | 120.92246 | 34056 ft | 430 kts | 223° |
| 2026-05-04 10:32 | 21.90905 | 120.75746 | 34046 ft | 413 kts | 258° |
| 2026-05-04 10:33 | 21.89601 | 120.69725 | 34046 ft | 413 kts | 258° |
| 2026-05-04 10:33 | 21.88078 | 120.62727 | 34037 ft | 413 kts | 258° |
| 2026-05-04 10:34 | 21.86977 | 120.57679 | 34019 ft | 414 kts | 257° |
| 2026-05-04 10:34 | 21.85662 | 120.51647 | 34016 ft | 414 kts | 257° |
| 2026-05-04 10:35 | 21.84337 | 120.45607 | 34009 ft | 415 kts | 257° |
| 2026-05-04 10:35 | 21.83012 | 120.39569 | 34015 ft | 415 kts | 257° |
| 2026-05-04 10:36 | 21.81689 | 120.33564 | 34018 ft | 415 kts | 257° |
| 2026-05-04 10:36 | 21.80360 | 120.27531 | 34023 ft | 414 kts | 257° |
| 2026-05-04 10:37 | 21.79034 | 120.21490 | 34030 ft | 414 kts | 257° |
| 2026-05-04 10:37 | 21.77708 | 120.15460 | 34033 ft | 415 kts | 257° |
| 2026-05-04 10:39 | 21.73027 | 119.94357 | 34024 ft | 414 kts | 257° |
| 2026-05-04 10:40 | 21.71682 | 119.88323 | 34011 ft | 416 kts | 257° |
| 2026-05-04 10:40 | 21.70334 | 119.82273 | 34021 ft | 416 kts | 256° |
| 2026-05-04 10:41 | 21.68982 | 119.76216 | 34025 ft | 416 kts | 256° |
| 2026-05-04 10:41 | 21.67619 | 119.70164 | 34030 ft | 416 kts | 256° |
| 2026-05-04 10:42 | 21.66256 | 119.64117 | 34033 ft | 417 kts | 256° |
| 2026-05-04 10:42 | 21.64903 | 119.58066 | 34033 ft | 416 kts | 256° |
| 2026-05-04 10:43 | 21.63550 | 119.52014 | 34042 ft | 416 kts | 256° |
| 2026-05-04 10:45 | 21.58117 | 119.27917 | 34041 ft | 414 kts | 256° |
| 2026-05-04 10:45 | 21.56747 | 119.21901 | 34022 ft | 415 kts | 256° |
| 2026-05-04 10:46 | 21.55377 | 119.15882 | 34027 ft | 415 kts | 256° |
| 2026-05-04 10:46 | 21.54005 | 119.09855 | 34028 ft | 415 kts | 256° |
| 2026-05-04 10:47 | 21.52627 | 119.03831 | 34034 ft | 416 kts | 256° |
| 2026-05-04 10:47 | 21.51238 | 118.97801 | 34028 ft | 416 kts | 256° |
| 2026-05-04 10:49 | 21.45711 | 118.73722 | 34043 ft | 416 kts | 256° |
| 2026-05-04 10:50 | 21.44323 | 118.67703 | 34041 ft | 415 kts | 256° |
| 2026-05-04 10:52 | 21.38751 | 118.43617 | 34015 ft | 417 kts | 255° |
| 2026-05-04 10:52 | 21.37343 | 118.37579 | 34010 ft | 418 kts | 255° |
| 2026-05-04 10:54 | 21.31673 | 118.13387 | 34020 ft | 418 kts | 255° |
| 2026-05-04 10:56 | 21.25971 | 117.89171 | 34034 ft | 419 kts | 256° |
| 2026-05-04 10:57 | 21.24536 | 117.83108 | 34008 ft | 420 kts | 255° |
| 2026-05-04 10:57 | 21.23102 | 117.77036 | 34011 ft | 421 kts | 255° |
| 2026-05-04 10:58 | 21.21660 | 117.70942 | 34012 ft | 422 kts | 255° |
| 2026-05-04 10:58 | 21.20205 | 117.64839 | 34013 ft | 423 kts | 255° |
| 2026-05-04 10:59 | 21.18753 | 117.58731 | 34018 ft | 423 kts | 255° |
| 2026-05-04 10:59 | 21.17292 | 117.52614 | 34024 ft | 424 kts | 255° |
| 2026-05-04 11:00 | 21.16625 | 117.46353 | 34039 ft | 425 kts | 268° |
| 2026-05-04 11:02 | 21.16327 | 117.21096 | 34036 ft | 423 kts | 268° |
| 2026-05-04 11:05 | 20.98706 | 116.78016 | 34034 ft | 426 kts | 245° |
| 2026-05-04 11:06 | 20.96097 | 116.72331 | 34030 ft | 426 kts | 245° |
| 2026-05-04 11:06 | 20.93460 | 116.66612 | 34031 ft | 425 kts | 245° |
| 2026-05-04 11:10 | 20.75007 | 116.26748 | 34014 ft | 429 kts | 244° |
| 2026-05-04 11:12 | 20.64430 | 116.03991 | 33989 ft | 428 kts | 244° |
| 2026-05-04 11:12 | 20.61767 | 115.98292 | 33987 ft | 430 kts | 244° |
| 2026-05-04 11:13 | 20.59109 | 115.92614 | 34000 ft | 431 kts | 244° |
| 2026-05-04 11:13 | 20.56439 | 115.86894 | 34011 ft | 431 kts | 245° |
| 2026-05-04 11:16 | 20.43072 | 115.58374 | 33999 ft | 429 kts | 245° |
| 2026-05-04 11:16 | 20.40394 | 115.52678 | 33997 ft | 430 kts | 245° |
| 2026-05-04 11:17 | 20.37704 | 115.46975 | 33995 ft | 431 kts | 244° |
| 2026-05-04 11:19 | 20.27360 | 115.25059 | 34015 ft | 431 kts | 245° |
| 2026-05-04 11:19 | 20.24661 | 115.19358 | 34013 ft | 431 kts | 245° |
| 2026-05-04 11:20 | 20.21964 | 115.13662 | 34008 ft | 431 kts | 244° |
| 2026-05-04 11:20 | 20.19263 | 115.07975 | 34009 ft | 430 kts | 244° |
| 2026-05-04 11:22 | 20.08450 | 114.85257 | 34015 ft | 430 kts | 244° |
| 2026-05-04 11:23 | 20.05755 | 114.79589 | 34013 ft | 429 kts | 244° |
| 2026-05-04 11:25 | 19.96295 | 114.59777 | 33989 ft | 430 kts | 244° |
| 2026-05-04 11:25 | 19.93579 | 114.54112 | 33989 ft | 430 kts | 244° |
| 2026-05-04 11:27 | 19.81342 | 114.28619 | 34002 ft | 431 kts | 244° |
| 2026-05-04 11:28 | 19.78611 | 114.22954 | 34008 ft | 431 kts | 244° |
| 2026-05-04 11:28 | 19.75879 | 114.17291 | 34007 ft | 431 kts | 244° |
| 2026-05-04 11:29 | 19.73152 | 114.11632 | 33989 ft | 431 kts | 244° |
| 2026-05-04 11:29 | 19.70412 | 114.05960 | 33990 ft | 432 kts | 244° |
| 2026-05-04 11:33 | 19.51141 | 113.66214 | 34013 ft | 433 kts | 244° |
| 2026-05-04 11:33 | 19.48379 | 113.60542 | 33993 ft | 433 kts | 244° |
| 2026-05-04 11:34 | 19.45605 | 113.54873 | 33999 ft | 434 kts | 244° |
| 2026-05-04 11:34 | 19.42834 | 113.49192 | 33999 ft | 434 kts | 244° |
| 2026-05-04 11:35 | 19.40071 | 113.43509 | 34004 ft | 434 kts | 244° |
| 2026-05-04 11:35 | 19.37294 | 113.37831 | 34000 ft | 434 kts | 244° |
| 2026-05-04 11:36 | 19.34512 | 113.32155 | 34013 ft | 434 kts | 244° |
| 2026-05-04 11:36 | 19.31737 | 113.26474 | 34009 ft | 434 kts | 244° |
| 2026-05-04 11:37 | 19.28957 | 113.20798 | 34011 ft | 434 kts | 244° |
| 2026-05-04 11:37 | 19.26169 | 113.15125 | 34011 ft | 435 kts | 244° |
| 2026-05-04 11:38 | 19.23380 | 113.09452 | 34010 ft | 435 kts | 244° |
| 2026-05-04 11:38 | 19.20586 | 113.03770 | 34004 ft | 435 kts | 244° |
| 2026-05-04 11:39 | 19.17786 | 112.98085 | 34003 ft | 436 kts | 244° |
| 2026-05-04 11:41 | 19.07984 | 112.78182 | 34009 ft | 436 kts | 244° |
| 2026-05-04 11:41 | 19.05173 | 112.72506 | 34006 ft | 436 kts | 244° |
| 2026-05-04 11:42 | 19.02363 | 112.66825 | 34009 ft | 436 kts | 244° |
| 2026-05-04 11:42 | 18.99572 | 112.61184 | 33997 ft | 436 kts | 244° |
| 2026-05-04 11:43 | 18.96761 | 112.55506 | 34006 ft | 436 kts | 244° |
| 2026-05-04 11:43 | 18.93932 | 112.49805 | 34009 ft | 435 kts | 244° |
| 2026-05-04 11:44 | 18.90946 | 112.44254 | 34006 ft | 437 kts | 235° |
| 2026-05-04 11:44 | 18.86523 | 112.39815 | 33988 ft | 444 kts | 218° |
| 2026-05-04 11:45 | 18.81493 | 112.36056 | 34210 ft | 447 kts | 219° |
| 2026-05-04 11:45 | 18.78960 | 112.34144 | 34434 ft | 447 kts | 219° |
| 2026-05-04 11:45 | 18.76435 | 112.32234 | 34665 ft | 446 kts | 219° |
| 2026-05-04 11:45 | 18.73880 | 112.30300 | 34902 ft | 446 kts | 219° |
| 2026-05-04 11:46 | 18.71403 | 112.28430 | 35171 ft | 443 kts | 219° |
| 2026-05-04 11:46 | 18.68867 | 112.26521 | 35469 ft | 441 kts | 219° |
| 2026-05-04 11:46 | 18.66561 | 112.24486 | 35700 ft | 436 kts | 229° |
| 2026-05-04 11:46 | 18.64595 | 112.22023 | 35909 ft | 432 kts | 238° |
| 2026-05-04 11:47 | 18.62938 | 112.19386 | 35984 ft | 432 kts | 239° |
| 2026-05-04 11:47 | 18.59648 | 112.14139 | 35989 ft | 431 kts | 238° |
| 2026-05-04 11:48 | 18.56313 | 112.08871 | 35986 ft | 433 kts | 238° |
| 2026-05-04 11:48 | 18.52963 | 112.03592 | 35991 ft | 434 kts | 238° |
| 2026-05-04 11:49 | 18.49616 | 111.98309 | 35989 ft | 434 kts | 238° |
| 2026-05-04 11:49 | 18.46264 | 111.93019 | 35983 ft | 434 kts | 238° |
| 2026-05-04 11:50 | 18.42910 | 111.87733 | 35995 ft | 434 kts | 238° |
| 2026-05-04 11:50 | 18.39549 | 111.82455 | 36003 ft | 434 kts | 238° |
| 2026-05-04 11:51 | 18.36195 | 111.77171 | 36010 ft | 434 kts | 238° |
| 2026-05-04 11:51 | 18.32840 | 111.71889 | 36006 ft | 434 kts | 238° |
| 2026-05-04 11:52 | 18.29480 | 111.66603 | 36006 ft | 435 kts | 238° |
| 2026-05-04 11:52 | 18.26116 | 111.61318 | 36007 ft | 435 kts | 238° |
| 2026-05-04 11:53 | 18.22741 | 111.56025 | 36008 ft | 435 kts | 238° |
| 2026-05-04 11:53 | 18.19365 | 111.50746 | 36001 ft | 435 kts | 238° |
| 2026-05-04 11:55 | 18.05870 | 111.29632 | 36011 ft | 435 kts | 238° |
| 2026-05-04 11:56 | 18.02492 | 111.24368 | 36008 ft | 434 kts | 238° |
| 2026-05-04 11:56 | 17.99115 | 111.19105 | 36008 ft | 434 kts | 238° |
| 2026-05-04 11:57 | 17.95746 | 111.13837 | 36015 ft | 434 kts | 238° |
| 2026-05-04 11:57 | 17.92370 | 111.08574 | 35995 ft | 435 kts | 238° |
| 2026-05-04 11:58 | 17.88984 | 111.03314 | 35998 ft | 435 kts | 238° |
| 2026-05-04 11:58 | 17.85600 | 110.98057 | 36001 ft | 435 kts | 238° |
| 2026-05-04 11:59 | 17.82213 | 110.92794 | 36002 ft | 435 kts | 238° |
| 2026-05-04 11:59 | 17.78830 | 110.87533 | 36003 ft | 435 kts | 238° |
| 2026-05-04 12:00 | 17.76014 | 110.83163 | 36003 ft | 435 kts | 238° |
| 2026-05-04 12:00 | 17.72044 | 110.77022 | 36002 ft | 435 kts | 238° |
| 2026-05-04 12:01 | 17.69225 | 110.72651 | 35998 ft | 435 kts | 238° |
| 2026-05-04 12:02 | 17.57296 | 110.54238 | 36003 ft | 437 kts | 238° |
| 2026-05-04 12:03 | 17.53880 | 110.48967 | 36004 ft | 437 kts | 238° |
| 2026-05-04 12:03 | 17.50472 | 110.43703 | 36004 ft | 437 kts | 238° |
| 2026-05-04 12:04 | 17.47051 | 110.38433 | 36005 ft | 437 kts | 238° |
| 2026-05-04 12:04 | 17.43632 | 110.33166 | 36005 ft | 437 kts | 238° |
| 2026-05-04 12:05 | 17.40220 | 110.27905 | 36003 ft | 437 kts | 238° |
| 2026-05-04 12:05 | 17.36830 | 110.22623 | 35992 ft | 437 kts | 239° |
| 2026-05-04 12:06 | 17.33459 | 110.17328 | 35990 ft | 437 kts | 239° |
| 2026-05-04 12:06 | 17.30077 | 110.12042 | 35993 ft | 437 kts | 238° |
| 2026-05-04 12:07 | 17.26690 | 110.06758 | 35995 ft | 437 kts | 238° |
| 2026-05-04 12:07 | 17.23298 | 110.01475 | 35997 ft | 437 kts | 238° |
| 2026-05-04 12:08 | 17.19903 | 109.96197 | 36001 ft | 438 kts | 238° |
| 2026-05-04 12:08 | 17.16505 | 109.90914 | 35999 ft | 438 kts | 238° |
| 2026-05-04 12:09 | 17.13107 | 109.85623 | 35994 ft | 438 kts | 238° |
| 2026-05-04 12:09 | 17.09712 | 109.80335 | 35993 ft | 438 kts | 238° |
| 2026-05-04 12:10 | 17.06306 | 109.75051 | 35988 ft | 438 kts | 238° |
| 2026-05-04 12:10 | 17.02890 | 109.69769 | 35989 ft | 439 kts | 238° |
| 2026-05-04 12:11 | 16.99476 | 109.64478 | 35996 ft | 439 kts | 238° |
| 2026-05-04 12:11 | 16.96066 | 109.59180 | 35995 ft | 439 kts | 238° |
| 2026-05-04 12:12 | 16.92660 | 109.53882 | 35995 ft | 440 kts | 238° |
| 2026-05-04 12:12 | 16.89235 | 109.48593 | 35990 ft | 440 kts | 238° |
| 2026-05-04 12:14 | 16.75530 | 109.27461 | 35988 ft | 440 kts | 238° |
| 2026-05-04 12:15 | 16.72120 | 109.22203 | 35990 ft | 441 kts | 238° |
| 2026-05-04 12:15 | 16.68666 | 109.16863 | 35992 ft | 441 kts | 238° |
| 2026-05-04 12:16 | 16.65227 | 109.11562 | 36001 ft | 441 kts | 238° |
| 2026-05-04 12:16 | 16.61811 | 109.06300 | 36006 ft | 441 kts | 238° |
| 2026-05-04 12:17 | 16.58376 | 109.01004 | 35998 ft | 441 kts | 238° |
| 2026-05-04 12:17 | 16.54929 | 108.95718 | 36000 ft | 441 kts | 238° |
| 2026-05-04 12:18 | 16.51440 | 108.90466 | 36001 ft | 441 kts | 237° |
| 2026-05-04 12:18 | 16.47916 | 108.85221 | 35988 ft | 442 kts | 237° |
| 2026-05-04 12:19 | 16.44400 | 108.79969 | 35994 ft | 442 kts | 237° |
| 2026-05-04 12:19 | 16.40890 | 108.74699 | 35995 ft | 443 kts | 237° |
| 2026-05-04 12:20 | 16.37375 | 108.69426 | 36001 ft | 443 kts | 237° |
| 2026-05-04 12:20 | 16.33875 | 108.64157 | 36000 ft | 443 kts | 238° |
| 2026-05-04 12:21 | 16.30444 | 108.58836 | 36004 ft | 442 kts | 238° |
| 2026-05-04 12:21 | 16.27040 | 108.53497 | 36003 ft | 442 kts | 238° |
| 2026-05-04 12:22 | 16.23622 | 108.48181 | 36005 ft | 442 kts | 238° |
| 2026-05-04 12:22 | 16.20189 | 108.42868 | 35999 ft | 443 kts | 237° |
| 2026-05-04 12:23 | 16.16750 | 108.37547 | 35979 ft | 444 kts | 237° |
| 2026-05-04 12:23 | 16.13301 | 108.32216 | 35988 ft | 445 kts | 237° |
| 2026-05-04 12:24 | 16.09834 | 108.26881 | 35987 ft | 445 kts | 237° |
| 2026-05-04 12:24 | 16.06396 | 108.21526 | 35986 ft | 445 kts | 241° |
| 2026-05-04 12:25 | 16.04107 | 108.15608 | 35988 ft | 442 kts | 255° |
| 2026-05-04 12:25 | 16.02396 | 108.09464 | 35987 ft | 443 kts | 254° |
| 2026-05-04 12:26 | 16.00661 | 108.03325 | 35993 ft | 443 kts | 254° |
| 2026-05-04 12:26 | 15.98944 | 107.97229 | 35997 ft | 443 kts | 254° |
| 2026-05-04 12:27 | 15.97216 | 107.91086 | 36002 ft | 443 kts | 254° |
| 2026-05-04 12:27 | 15.95499 | 107.84947 | 36012 ft | 443 kts | 255° |
| 2026-05-04 12:28 | 15.93823 | 107.78789 | 36013 ft | 443 kts | 255° |
| 2026-05-04 12:28 | 15.92160 | 107.72617 | 36008 ft | 444 kts | 255° |
| 2026-05-04 12:29 | 15.90481 | 107.66437 | 36001 ft | 445 kts | 255° |
| 2026-05-04 12:29 | 15.88767 | 107.60260 | 36027 ft | 445 kts | 254° |
| 2026-05-04 12:30 | 15.86987 | 107.54097 | 36026 ft | 446 kts | 254° |
| 2026-05-04 12:30 | 15.85193 | 107.47929 | 36031 ft | 446 kts | 254° |
| 2026-05-04 12:31 | 15.83413 | 107.41755 | 36040 ft | 447 kts | 254° |
| 2026-05-04 12:31 | 15.81646 | 107.35571 | 36043 ft | 446 kts | 254° |
| 2026-05-04 12:32 | 15.78984 | 107.26310 | 36050 ft | 446 kts | 254° |
| 2026-05-04 12:33 | 15.77205 | 107.20148 | 36045 ft | 445 kts | 254° |
| 2026-05-04 12:33 | 15.75577 | 107.13955 | 36030 ft | 444 kts | 257° |
| 2026-05-04 12:34 | 15.74279 | 107.07735 | 36030 ft | 444 kts | 259° |
| 2026-05-04 12:34 | 15.73019 | 107.01456 | 36012 ft | 444 kts | 258° |
| 2026-05-04 12:35 | 15.71688 | 106.95206 | 36010 ft | 443 kts | 258° |
| 2026-05-04 12:35 | 15.70322 | 106.88979 | 35985 ft | 443 kts | 258° |
| 2026-05-04 12:36 | 15.68952 | 106.82760 | 35989 ft | 442 kts | 258° |
| 2026-05-04 12:36 | 15.67597 | 106.76538 | 35941 ft | 442 kts | 258° |
| 2026-05-04 12:37 | 15.66247 | 106.70298 | 35923 ft | 444 kts | 258° |
| 2026-05-04 12:37 | 15.64889 | 106.64046 | 35940 ft | 444 kts | 258° |
| 2026-05-04 12:38 | 15.63526 | 106.57798 | 35937 ft | 444 kts | 258° |
| 2026-05-04 12:38 | 15.62158 | 106.51549 | 35938 ft | 444 kts | 258° |
| 2026-05-04 12:39 | 15.60780 | 106.45304 | 35936 ft | 444 kts | 258° |
| 2026-05-04 12:39 | 15.59417 | 106.39062 | 35936 ft | 444 kts | 258° |
| 2026-05-04 12:40 | 15.58051 | 106.32817 | 35958 ft | 443 kts | 258° |
| 2026-05-04 12:40 | 15.56675 | 106.26588 | 35961 ft | 443 kts | 258° |
| 2026-05-04 12:41 | 15.55306 | 106.20372 | 35946 ft | 442 kts | 258° |
| 2026-05-04 12:41 | 15.53935 | 106.14165 | 35946 ft | 441 kts | 258° |
| 2026-05-04 12:42 | 15.52564 | 106.07968 | 35946 ft | 441 kts | 258° |
| 2026-05-04 12:42 | 15.51192 | 106.01772 | 35933 ft | 441 kts | 258° |
| 2026-05-04 12:43 | 15.49821 | 105.95580 | 35938 ft | 440 kts | 258° |
| 2026-05-04 12:43 | 15.48448 | 105.89392 | 35928 ft | 440 kts | 258° |
| 2026-05-04 12:44 | 15.47075 | 105.83216 | 35930 ft | 440 kts | 258° |
| 2026-05-04 12:44 | 15.45704 | 105.77037 | 35924 ft | 439 kts | 258° |
| 2026-05-04 12:45 | 15.44334 | 105.70867 | 35924 ft | 439 kts | 258° |
| 2026-05-04 12:45 | 15.42959 | 105.64703 | 35918 ft | 439 kts | 257° |
| 2026-05-04 12:46 | 15.41812 | 105.59573 | 35901 ft | 440 kts | 257° |
| 2026-05-04 12:46 | 15.40390 | 105.53389 | 35897 ft | 441 kts | 257° |
| 2026-05-04 12:47 | 15.38914 | 105.47208 | 35900 ft | 443 kts | 256° |
| 2026-05-04 12:47 | 15.37435 | 105.41011 | 35907 ft | 443 kts | 257° |
| 2026-05-04 12:48 | 15.35970 | 105.34811 | 35912 ft | 444 kts | 257° |
| 2026-05-04 12:48 | 15.34504 | 105.28595 | 35915 ft | 444 kts | 257° |
| 2026-05-04 12:49 | 15.33036 | 105.22387 | 35928 ft | 444 kts | 257° |
| 2026-05-04 12:49 | 15.31560 | 105.16172 | 35932 ft | 443 kts | 256° |
| 2026-05-04 12:50 | 15.30083 | 105.09979 | 35931 ft | 443 kts | 256° |
| 2026-05-04 12:50 | 15.28608 | 105.03789 | 35933 ft | 442 kts | 256° |
| 2026-05-04 12:51 | 15.27135 | 104.97602 | 35943 ft | 442 kts | 256° |
| 2026-05-04 12:51 | 15.25660 | 104.91419 | 35936 ft | 442 kts | 256° |
| 2026-05-04 12:52 | 15.24397 | 104.85200 | 35938 ft | 441 kts | 265° |
| 2026-05-04 12:52 | 15.23906 | 104.78865 | 35941 ft | 441 kts | 265° |
| 2026-05-04 12:53 | 15.23379 | 104.72540 | 35938 ft | 441 kts | 265° |
| 2026-05-04 12:53 | 15.22845 | 104.66213 | 35934 ft | 441 kts | 265° |
| 2026-05-04 12:54 | 15.22318 | 104.59933 | 35930 ft | 441 kts | 265° |
| 2026-05-04 12:54 | 15.21799 | 104.53603 | 35926 ft | 441 kts | 265° |
| 2026-05-04 12:55 | 15.21281 | 104.47281 | 35925 ft | 441 kts | 265° |
| 2026-05-04 12:55 | 15.20747 | 104.40950 | 35926 ft | 441 kts | 265° |
| 2026-05-04 12:56 | 15.20212 | 104.34611 | 35924 ft | 441 kts | 265° |
| 2026-05-04 12:56 | 15.19686 | 104.28283 | 35924 ft | 441 kts | 265° |
| 2026-05-04 12:57 | 15.19151 | 104.21960 | 35923 ft | 441 kts | 265° |
| 2026-05-04 12:57 | 15.18616 | 104.15637 | 35900 ft | 441 kts | 265° |
| 2026-05-04 12:58 | 15.18076 | 104.09292 | 35889 ft | 443 kts | 265° |
| 2026-05-04 12:58 | 15.17532 | 104.02928 | 35886 ft | 445 kts | 265° |
| 2026-05-04 12:59 | 15.16990 | 103.96543 | 35889 ft | 446 kts | 265° |
| 2026-05-04 12:59 | 15.16441 | 103.90109 | 35896 ft | 446 kts | 265° |
| 2026-05-04 13:00 | 15.15893 | 103.83710 | 35904 ft | 446 kts | 265° |
| 2026-05-04 13:00 | 15.15023 | 103.77362 | 35915 ft | 445 kts | 254° |
| 2026-05-04 13:01 | 15.13073 | 103.71282 | 35917 ft | 445 kts | 252° |
| 2026-05-04 13:01 | 15.11100 | 103.65210 | 35921 ft | 445 kts | 252° |
| 2026-05-04 13:02 | 15.09130 | 103.59130 | 35917 ft | 445 kts | 252° |
| 2026-05-04 13:02 | 15.07166 | 103.53056 | 35924 ft | 445 kts | 252° |
| 2026-05-04 13:03 | 15.05201 | 103.46987 | 35920 ft | 445 kts | 252° |
| 2026-05-04 13:03 | 15.03225 | 103.40911 | 35925 ft | 445 kts | 252° |
| 2026-05-04 13:04 | 15.01253 | 103.34842 | 35926 ft | 445 kts | 252° |
| 2026-05-04 13:04 | 14.99280 | 103.28768 | 35929 ft | 445 kts | 252° |
| 2026-05-04 13:05 | 14.97305 | 103.22699 | 35924 ft | 445 kts | 252° |
| 2026-05-04 13:05 | 14.95331 | 103.16634 | 35926 ft | 445 kts | 252° |
| 2026-05-04 13:06 | 14.93363 | 103.10571 | 35918 ft | 445 kts | 252° |
| 2026-05-04 13:06 | 14.91381 | 103.04501 | 35920 ft | 446 kts | 252° |
| 2026-05-04 13:07 | 14.89404 | 102.98467 | 35926 ft | 446 kts | 252° |
| 2026-05-04 13:07 | 14.87406 | 102.92345 | 35928 ft | 447 kts | 252° |
| 2026-05-04 13:08 | 14.85449 | 102.86256 | 35929 ft | 447 kts | 252° |
| 2026-05-04 13:08 | 14.83609 | 102.80169 | 35935 ft | 446 kts | 253° |
| 2026-05-04 13:09 | 14.81772 | 102.74040 | 35934 ft | 446 kts | 253° |
| 2026-05-04 13:09 | 14.79894 | 102.67877 | 35936 ft | 447 kts | 252° |
| 2026-05-04 13:10 | 14.78004 | 102.61800 | 35942 ft | 447 kts | 252° |
| 2026-05-04 13:10 | 14.76106 | 102.55685 | 35944 ft | 447 kts | 252° |
| 2026-05-04 13:11 | 14.74222 | 102.49567 | 35946 ft | 447 kts | 252° |
| 2026-05-04 13:11 | 14.72343 | 102.43440 | 35945 ft | 447 kts | 252° |
| 2026-05-04 13:12 | 14.70458 | 102.37327 | 35948 ft | 447 kts | 253° |
| 2026-05-04 13:12 | 14.68562 | 102.31221 | 35941 ft | 446 kts | 253° |
| 2026-05-04 13:13 | 14.66677 | 102.25126 | 35938 ft | 446 kts | 253° |
| 2026-05-04 13:13 | 14.64788 | 102.19030 | 35937 ft | 445 kts | 253° |
| 2026-05-04 13:14 | 14.62901 | 102.12936 | 35938 ft | 445 kts | 253° |
| 2026-05-04 13:14 | 14.61016 | 102.06841 | 35922 ft | 447 kts | 252° |
| 2026-05-04 13:14 | 14.60065 | 102.03775 | 35799 ft | 450 kts | 252° |
| 2026-05-04 13:15 | 14.59105 | 102.00685 | 35061 ft | 455 kts | 252° |
| 2026-05-04 13:15 | 14.58134 | 101.97565 | 34406 ft | 457 kts | 252° |
| 2026-05-04 13:15 | 14.57157 | 101.94428 | 33486 ft | 463 kts | 252° |
| 2026-05-04 13:15 | 14.56148 | 101.91248 | 32614 ft | 467 kts | 251° |
| 2026-05-04 13:16 | 14.55026 | 101.88099 | 31700 ft | 471 kts | 249° |
| 2026-05-04 13:16 | 14.53783 | 101.84944 | 30725 ft | 476 kts | 247° |
| 2026-05-04 13:16 | 14.52471 | 101.81805 | 29878 ft | 476 kts | 246° |
| 2026-05-04 13:16 | 14.51133 | 101.78656 | 28765 ft | 479 kts | 246° |
| 2026-05-04 13:17 | 14.49800 | 101.75489 | 27572 ft | 484 kts | 247° |
| 2026-05-04 13:17 | 14.48480 | 101.72287 | 26406 ft | 487 kts | 247° |
| 2026-05-04 13:17 | 14.47195 | 101.69103 | 25684 ft | 469 kts | 248° |
| 2026-05-04 13:17 | 14.45993 | 101.66085 | 25019 ft | 445 kts | 248° |
| 2026-05-04 13:18 | 14.44845 | 101.63188 | 24338 ft | 426 kts | 248° |
| 2026-05-04 13:18 | 14.43728 | 101.60359 | 23676 ft | 426 kts | 248° |
| 2026-05-04 13:18 | 14.42609 | 101.57532 | 22933 ft | 425 kts | 248° |
| 2026-05-04 13:18 | 14.41488 | 101.54718 | 22300 ft | 426 kts | 248° |
| 2026-05-04 13:19 | 14.40359 | 101.51898 | 21638 ft | 424 kts | 248° |
| 2026-05-04 13:19 | 14.39610 | 101.50037 | 21196 ft | 423 kts | 248° |
| 2026-05-04 13:19 | 14.38103 | 101.46299 | 20326 ft | 421 kts | 248° |
| 2026-05-04 13:19 | 14.36980 | 101.43515 | 19668 ft | 420 kts | 248° |
| 2026-05-04 13:20 | 14.35857 | 101.40729 | 19044 ft | 419 kts | 248° |
| 2026-05-04 13:20 | 14.34736 | 101.37956 | 18457 ft | 418 kts | 248° |
| 2026-05-04 13:20 | 14.33627 | 101.35228 | 18272 ft | 405 kts | 248° |
| 2026-05-04 13:20 | 14.32557 | 101.32595 | 18157 ft | 391 kts | 248° |
| 2026-05-04 13:21 | 14.31430 | 101.30100 | 17906 ft | 380 kts | 240° |
| 2026-05-04 13:21 | 14.29888 | 101.27919 | 17615 ft | 373 kts | 228° |
| 2026-05-04 13:21 | 14.27974 | 101.26115 | 17415 ft | 374 kts | 219° |
| 2026-05-04 13:21 | 14.25959 | 101.24425 | 17074 ft | 372 kts | 219° |
| 2026-05-04 13:22 | 14.23953 | 101.22739 | 16739 ft | 371 kts | 219° |
| 2026-05-04 13:22 | 14.21962 | 101.21064 | 16405 ft | 369 kts | 219° |
| 2026-05-04 13:22 | 14.19982 | 101.19395 | 16073 ft | 367 kts | 219° |
| 2026-05-04 13:22 | 14.18009 | 101.17734 | 15747 ft | 365 kts | 219° |
| 2026-05-04 13:23 | 14.16048 | 101.16083 | 15417 ft | 363 kts | 219° |
| 2026-05-04 13:23 | 14.14096 | 101.14441 | 15102 ft | 362 kts | 219° |
| 2026-05-04 13:23 | 14.12150 | 101.12805 | 14777 ft | 360 kts | 219° |
| 2026-05-04 13:23 | 14.10242 | 101.11202 | 14460 ft | 358 kts | 219° |
| 2026-05-04 13:24 | 14.08314 | 101.09582 | 14126 ft | 357 kts | 219° |
| 2026-05-04 13:24 | 14.06372 | 101.07947 | 13811 ft | 355 kts | 219° |
| 2026-05-04 13:24 | 14.04489 | 101.06362 | 13476 ft | 353 kts | 219° |
| 2026-05-04 13:25 | 14.00765 | 101.03239 | 13070 ft | 333 kts | 219° |
| 2026-05-04 13:25 | 13.99002 | 101.01756 | 12936 ft | 322 kts | 219° |
| 2026-05-04 13:25 | 13.97285 | 101.00312 | 12669 ft | 316 kts | 219° |
| 2026-05-04 13:25 | 13.95596 | 100.98895 | 12410 ft | 312 kts | 218° |
| 2026-05-04 13:26 | 13.93919 | 100.97490 | 12159 ft | 310 kts | 218° |
| 2026-05-04 13:26 | 13.92253 | 100.96093 | 11925 ft | 309 kts | 218° |
| 2026-05-04 13:26 | 13.90590 | 100.94698 | 11678 ft | 307 kts | 218° |
| 2026-05-04 13:26 | 13.88936 | 100.93309 | 11448 ft | 306 kts | 218° |
| 2026-05-04 13:27 | 13.87289 | 100.91925 | 11210 ft | 305 kts | 218° |
| 2026-05-04 13:27 | 13.85652 | 100.90551 | 10976 ft | 304 kts | 218° |
| 2026-05-04 13:27 | 13.83981 | 100.89237 | 10872 ft | 301 kts | 210° |
| 2026-05-04 13:27 | 13.82093 | 100.88307 | 10889 ft | 301 kts | 197° |
| 2026-05-04 13:28 | 13.80072 | 100.87735 | 10891 ft | 301 kts | 194° |
| 2026-05-04 13:28 | 13.78020 | 100.87181 | 10891 ft | 301 kts | 194° |
| 2026-05-04 13:28 | 13.76675 | 100.86816 | 10891 ft | 301 kts | 194° |
| 2026-05-04 13:28 | 13.74645 | 100.86263 | 10891 ft | 301 kts | 194° |
| 2026-05-04 13:29 | 13.72603 | 100.85706 | 10409 ft | 309 kts | 194° |
| 2026-05-04 13:29 | 13.70538 | 100.85139 | 10171 ft | 299 kts | 194° |
| 2026-05-04 13:29 | 13.68612 | 100.84609 | 10011 ft | 276 kts | 194° |
| 2026-05-04 13:29 | 13.66800 | 100.84112 | 9596 ft | 265 kts | 194° |
| 2026-05-04 13:30 | 13.65019 | 100.83626 | 9130 ft | 256 kts | 194° |
| 2026-05-04 13:30 | 13.63310 | 100.83159 | 9014 ft | 256 kts | 194° |
| 2026-05-04 13:30 | 13.61607 | 100.82695 | 8866 ft | 257 kts | 193° |
| 2026-05-04 13:30 | 13.59871 | 100.82221 | 8615 ft | 258 kts | 193° |
| 2026-05-04 13:31 | 13.58147 | 100.81749 | 8327 ft | 255 kts | 193° |
| 2026-05-04 13:31 | 13.56439 | 100.81282 | 8043 ft | 253 kts | 193° |
| 2026-05-04 13:31 | 13.54743 | 100.80817 | 7759 ft | 251 kts | 193° |
| 2026-05-04 13:31 | 13.53059 | 100.80357 | 7469 ft | 249 kts | 193° |
| 2026-05-04 13:32 | 13.51391 | 100.79900 | 7197 ft | 247 kts | 193° |
| 2026-05-04 13:32 | 13.49737 | 100.79446 | 6923 ft | 245 kts | 193° |
| 2026-05-04 13:32 | 13.48098 | 100.78997 | 6649 ft | 243 kts | 193° |
| 2026-05-04 13:32 | 13.46470 | 100.78552 | 6377 ft | 241 kts | 193° |
| 2026-05-04 13:33 | 13.44873 | 100.78115 | 6091 ft | 236 kts | 193° |
| 2026-05-04 13:33 | 13.43297 | 100.77683 | 5783 ft | 232 kts | 193° |
| 2026-05-04 13:33 | 13.41754 | 100.77261 | 5500 ft | 227 kts | 193° |
| 2026-05-04 13:33 | 13.40328 | 100.76627 | 5222 ft | 224 kts | 217° |
| 2026-05-04 13:34 | 13.39400 | 100.75370 | 5033 ft | 223 kts | 248° |
| 2026-05-04 13:34 | 13.39215 | 100.73795 | 4989 ft | 226 kts | 279° |
| 2026-05-04 13:34 | 13.39727 | 100.72274 | 4990 ft | 228 kts | 304° |
| 2026-05-04 13:34 | 13.40922 | 100.71246 | 4997 ft | 226 kts | 339° |
| 2026-05-04 13:35 | 13.42447 | 100.71063 | 5001 ft | 223 kts | 11° |
| 2026-05-04 13:35 | 13.45439 | 100.71887 | 5002 ft | 223 kts | 19° |
| 2026-05-04 13:35 | 13.46920 | 100.72351 | 4979 ft | 221 kts | 19° |
| 2026-05-04 13:36 | 13.48379 | 100.72807 | 4655 ft | 220 kts | 19° |
| 2026-05-04 13:36 | 13.49843 | 100.73263 | 4312 ft | 219 kts | 19° |
| 2026-05-04 13:36 | 13.51299 | 100.73719 | 4031 ft | 217 kts | 19° |
| 2026-05-04 13:36 | 13.52745 | 100.74174 | 4004 ft | 219 kts | 19° |
| 2026-05-04 13:37 | 13.54207 | 100.74634 | 4009 ft | 220 kts | 19° |
| 2026-05-04 13:37 | 13.55649 | 100.75091 | 4008 ft | 220 kts | 19° |
| 2026-05-04 13:37 | 13.57112 | 100.75553 | 4006 ft | 220 kts | 19° |
| 2026-05-04 13:37 | 13.58574 | 100.76018 | 4008 ft | 220 kts | 19° |
| 2026-05-04 13:38 | 13.60034 | 100.76482 | 4004 ft | 219 kts | 19° |
| 2026-05-04 13:38 | 13.61492 | 100.76946 | 4007 ft | 219 kts | 19° |
| 2026-05-04 13:38 | 13.62948 | 100.77411 | 4008 ft | 220 kts | 19° |
| 2026-05-04 13:38 | 13.64404 | 100.77883 | 4006 ft | 219 kts | 19° |
| 2026-05-04 13:39 | 13.65861 | 100.78356 | 4010 ft | 220 kts | 19° |
| 2026-05-04 13:39 | 13.67317 | 100.78830 | 4008 ft | 220 kts | 19° |
| 2026-05-04 13:39 | 13.68772 | 100.79303 | 4007 ft | 219 kts | 19° |
| 2026-05-04 13:39 | 13.70219 | 100.79772 | 4008 ft | 220 kts | 19° |
| 2026-05-04 13:40 | 13.71678 | 100.80245 | 4007 ft | 220 kts | 19° |
| 2026-05-04 13:40 | 13.73140 | 100.80719 | 4008 ft | 220 kts | 19° |
| 2026-05-04 13:40 | 13.74578 | 100.81184 | 3927 ft | 210 kts | 19° |
| 2026-05-04 13:40 | 13.75917 | 100.81615 | 3813 ft | 194 kts | 19° |
| 2026-05-04 13:41 | 13.77161 | 100.82013 | 3669 ft | 181 kts | 19° |
| 2026-05-04 13:41 | 13.78326 | 100.82384 | 3539 ft | 171 kts | 19° |
| 2026-05-04 13:41 | 13.79468 | 100.82685 | 3289 ft | 170 kts | 3° |
| 2026-05-04 13:42 | 13.81329 | 100.81496 | 2792 ft | 165 kts | 288° |
| 2026-05-04 13:42 | 13.81423 | 100.80353 | 2516 ft | 161 kts | 253° |
| 2026-05-04 13:42 | 13.80868 | 100.79395 | 2284 ft | 156 kts | 218° |
| 2026-05-04 13:42 | 13.79906 | 100.78923 | 2088 ft | 154 kts | 192° |
| 2026-05-04 13:43 | 13.78863 | 100.78652 | 1912 ft | 155 kts | 193° |
| 2026-05-04 13:43 | 13.77820 | 100.78378 | 1716 ft | 154 kts | 193° |
| 2026-05-04 13:43 | 13.76785 | 100.78106 | 1539 ft | 153 kts | 193° |
| 2026-05-04 13:43 | 13.75762 | 100.77837 | 1334 ft | 147 kts | 192° |
| 2026-05-04 13:44 | 13.74780 | 100.77578 | 1127 ft | 145 kts | 193° |
| 2026-05-04 13:44 | 13.73809 | 100.77323 | 947 ft | 143 kts | 193° |
| 2026-05-04 13:44 | 13.72844 | 100.77070 | 776 ft | 143 kts | 192° |
| 2026-05-04 13:44 | 13.71873 | 100.76814 | 618 ft | 146 kts | 192° |
| 2026-05-04 13:45 | 13.70889 | 100.76554 | 414 ft | 146 kts | 192° |
| 2026-05-04 13:45 | 13.69897 | 100.76290 | 216 ft | 148 kts | 192° |
| 2026-05-04 13:45 | 13.68898 | 100.76033 | 34 ft | 146 kts | 193° |
| 2026-05-04 13:45 | 13.68083 | 100.75828 | 13 ft | 111 kts | 196° |
| 2026-05-04 13:46 | 13.67562 | 100.75681 | 11 ft | 44 kts | 194° |
| 2026-05-04 13:46 | 13.67302 | 100.75608 | 14 ft | 36 kts | 201° |
| 2026-05-04 13:46 | 13.67140 | 100.75493 | 14 ft | 19 kts | 223° |
| 2026-05-04 13:46 | 13.67091 | 100.75414 | 13 ft | 13 kts | 283° |
| 2026-05-04 13:47 | 13.67145 | 100.75381 | 13 ft | 10 kts | 7° |
| 2026-05-04 13:47 | 13.67197 | 100.75394 | 13 ft | 7 kts | 14° |
| 2026-05-04 13:47 | 13.67254 | 100.75409 | 13 ft | 9 kts | 14° |
| 2026-05-04 13:47 | 13.67324 | 100.75427 | 13 ft | 11 kts | 14° |
| 2026-05-04 13:48 | 13.67406 | 100.75449 | 13 ft | 13 kts | 14° |
| 2026-05-04 13:48 | 13.67500 | 100.75473 | 13 ft | 15 kts | 14° |
| 2026-05-04 13:48 | 13.67605 | 100.75501 | 13 ft | 16 kts | 15° |
| 2026-05-04 13:48 | 13.67703 | 100.75527 | 13 ft | 14 kts | 12° |
| 2026-05-04 13:49 | 13.67771 | 100.75475 | 13 ft | 14 kts | 285° |
| 2026-05-04 13:49 | 13.67793 | 100.75389 | 13 ft | 11 kts | 284° |
| 2026-05-04 13:49 | 13.67811 | 100.75315 | 13 ft | 9 kts | 284° |
| 2026-05-04 13:49 | 13.67828 | 100.75244 | 13 ft | 11 kts | 283° |
| 2026-05-04 13:50 | 13.67847 | 100.75172 | 13 ft | 11 kts | 285° |
| 2026-05-04 13:50 | 13.67867 | 100.75092 | 13 ft | 12 kts | 284° |
| 2026-05-04 13:50 | 13.67891 | 100.75000 | 13 ft | 14 kts | 290° |
| 2026-05-04 13:50 | 13.67974 | 100.74965 | 13 ft | 14 kts | 354° |
| 2026-05-04 13:51 | 13.68019 | 100.74881 | 13 ft | 14 kts | 284° |
| 2026-05-04 13:51 | 13.68042 | 100.74789 | 15 ft | 14 kts | 284° |
| 2026-05-04 13:51 | 13.68067 | 100.74690 | 13 ft | 9 kts | 284° |
| 2026-05-04 13:51 | 13.68084 | 100.74620 | 13 ft | 11 kts | 284° |
| 2026-05-04 13:52 | 13.68145 | 100.74581 | 13 ft | 6 kts | 14° |
| 2026-05-04 13:52 | 13.68186 | 100.74592 | 16 ft | 6 kts | 14° |
| 2026-05-04 13:52 | 13.68190 | 100.74593 | 15 ft | 0 kts | 14° |